Time;durP1;ratioP1;P1;durP2;ratioP2;P2;SDS_P1;SDS_P2;PMS_P1;PMS_P2;Temp;Humidity;BMP_temperature;BMP_pressure;BME280_temperature;BME280_humidity;BME280_pressure;Samples;Min_cycle;Max_cycle;Signal;HPM_P1;HPM_P2
2021/12/23 00:01:37;;;;;;;25.93;20.63;;;;;;;-3.26;100.00;101660.09;4956634;28;20038;-57
2021/12/23 00:04:03;;;;;;;28.50;20.87;;;;;;;-3.26;100.00;101656.69;4957625;28;20015;-57
2021/12/23 00:06:28;;;;;;;25.03;19.47;;;;;;;-3.26;100.00;101656.69;4953875;28;20073;-58
2021/12/23 00:08:57;;;;;;;27.80;20.70;;;;;;;-3.27;100.00;101665.94;4955749;28;20405;-58
2021/12/23 00:11:22;;;;;;;25.57;20.30;;;;;;;-3.25;100.00;101661.00;4962684;28;20073;-58
2021/12/23 00:14:00;;;;;;;27.03;21.30;;;;;;;-3.23;100.00;101651.00;4953673;28;20455;-56
2021/12/23 00:16:41;;;;;;;27.73;20.83;;;;;;;-3.24;100.00;101641.63;4958924;28;20466;-58
2021/12/23 00:19:19;;;;;;;26.40;19.85;;;;;;;-3.26;100.00;101637.28;4959287;28;20082;-57
2021/12/23 00:24:29;;;;;;;32.30;21.03;;;;;;;-3.27;100.00;101626.97;4962422;28;20041;-58
2021/12/23 00:26:54;;;;;;;30.47;21.30;;;;;;;-3.28;100.00;101612.53;4962073;28;20125;-57
2021/12/23 00:29:19;;;;;;;27.17;21.17;;;;;;;-3.27;100.00;101619.38;5004050;28;20040;-57
2021/12/23 00:31:45;;;;;;;26.10;21.30;;;;;;;-3.24;100.00;101617.19;5000976;28;20491;-57
2021/12/23 00:34:10;;;;;;;27.87;22.33;;;;;;;-3.26;100.00;101611.91;4997098;28;20243;-59
2021/12/23 00:36:38;;;;;;;28.57;21.13;;;;;;;-3.26;100.00;101593.31;5000234;28;20026;-57
2021/12/23 00:39:06;;;;;;;26.50;21.20;;;;;;;-3.27;100.00;101573.75;4994688;28;20482;-58
2021/12/23 00:41:31;;;;;;;26.37;21.27;;;;;;;-3.26;100.00;101575.53;5002912;28;20088;-58
2021/12/23 00:43:58;;;;;;;25.47;20.93;;;;;;;-3.25;100.00;101584.94;4996759;28;20034;-58
2021/12/23 00:46:23;;;;;;;27.67;21.13;;;;;;;-3.23;100.00;101596.13;5007392;28;20030;-58
2021/12/23 00:48:48;;;;;;;28.63;22.17;;;;;;;-3.22;100.00;101608.06;5000807;28;20048;-57
2021/12/23 00:51:14;;;;;;;27.63;21.23;;;;;;;-3.21;100.00;101594.66;5003430;28;20498;-57
2021/12/23 00:53:40;;;;;;;26.70;21.27;;;;;;;-3.20;100.00;101586.28;4998560;28;20041;-57
2021/12/23 00:56:07;;;;;;;26.97;21.57;;;;;;;-3.22;100.00;101585.22;5001271;28;20141;-58
2021/12/23 00:58:32;;;;;;;26.50;20.03;;;;;;;-3.19;100.00;101579.59;5002297;28;20049;-58
2021/12/23 01:01:00;;;;;;;27.27;20.40;;;;;;;-3.19;100.00;101571.97;4999747;28;20034;-58
2021/12/23 01:03:26;;;;;;;24.67;20.60;;;;;;;-3.19;100.00;101577.97;5005486;28;20026;-58
2021/12/23 01:05:51;;;;;;;27.37;21.10;;;;;;;-3.20;100.00;101583.75;4998271;28;20485;-56
2021/12/23 01:08:19;;;;;;;26.83;21.47;;;;;;;-3.20;100.00;101598.97;5002858;28;20022;-58
2021/12/23 01:10:52;;;;;;;26.80;21.13;;;;;;;-3.20;100.00;101596.44;5006072;28;20040;-58
2021/12/23 01:13:19;;;;;;;29.80;21.97;;;;;;;-3.19;100.00;101595.72;5002903;28;20037;-56
2021/12/23 01:16:04;;;;;;;25.73;20.53;;;;;;;-3.19;100.00;101590.63;5003406;28;20044;-57
2021/12/23 01:18:45;;;;;;;27.00;21.43;;;;;;;-3.20;100.00;101588.81;4999286;28;20394;-56
2021/12/23 01:21:18;;;;;;;28.30;21.52;;;;;;;-3.20;100.00;101596.44;5003197;28;20029;-59
2021/12/23 01:23:52;;;;;;;27.63;20.57;;;;;;;-3.19;100.00;101593.16;5003980;28;20522;-58
2021/12/23 01:26:22;;;;;;;26.87;22.47;;;;;;;-3.20;100.00;101586.28;5004765;28;20038;-58
2021/12/23 01:28:51;;;;;;;29.97;21.33;;;;;;;-3.22;100.00;101572.56;4997683;28;20042;-57
2021/12/23 01:31:17;;;;;;;28.87;21.37;;;;;;;-3.20;100.00;101566.00;5002645;28;20038;-57
2021/12/23 01:33:42;;;;;;;25.90;20.33;;;;;;;-3.19;100.00;101566.91;5001141;28;20080;-57
2021/12/23 01:36:08;;;;;;;27.30;21.50;;;;;;;-3.19;100.00;101560.19;5001066;28;20073;-57
2021/12/23 01:38:33;;;;;;;30.33;21.40;;;;;;;-3.20;100.00;101563.47;4997900;28;20030;-59
2021/12/23 01:40:59;;;;;;;27.33;20.87;;;;;;;-3.18;100.00;101563.63;4999700;28;20492;-57
2021/12/23 01:43:24;;;;;;;29.67;21.57;;;;;;;-3.20;100.00;101545.72;5002608;28;20068;-57
2021/12/23 01:45:50;;;;;;;25.13;21.30;;;;;;;-3.20;100.00;101543.19;4997805;28;20081;-58
2021/12/23 01:48:17;;;;;;;30.33;21.13;;;;;;;-3.19;100.00;101541.53;5005449;28;20026;-56
2021/12/23 01:50:43;;;;;;;26.80;20.63;;;;;;;-3.19;100.00;101541.53;4994908;28;20037;-58
2021/12/23 01:53:09;;;;;;;25.93;21.40;;;;;;;-3.17;100.00;101555.28;5003952;28;20418;-57
2021/12/23 01:55:36;;;;;;;26.90;20.73;;;;;;;-3.16;100.00;101537.66;4999079;28;20250;-58
2021/12/23 01:58:03;;;;;;;28.60;20.70;;;;;;;-3.16;100.00;101532.59;5007692;28;20034;-58
2021/12/23 02:00:33;;;;;;;26.80;21.30;;;;;;;-3.16;100.00;101530.06;4997788;28;20053;-59
2021/12/23 02:02:59;;;;;;;27.20;20.10;;;;;;;-3.15;100.00;101529.31;4998656;28;20034;-58
2021/12/23 02:05:25;;;;;;;27.03;20.97;;;;;;;-3.16;100.00;101519.91;5006410;28;20037;-59
2021/12/23 02:07:50;;;;;;;26.87;21.07;;;;;;;-3.15;100.00;101521.69;4996235;28;20405;-57
2021/12/23 02:10:16;;;;;;;31.80;21.97;;;;;;;-3.14;100.00;101520.06;5006451;28;20037;-57
2021/12/23 02:12:44;;;;;;;25.83;19.67;;;;;;;-3.15;100.00;101510.69;4993885;28;20084;-58
2021/12/23 02:15:10;;;;;;;26.57;21.07;;;;;;;-3.17;100.00;101504.56;5004267;28;20386;-58
2021/12/23 02:17:37;;;;;;;30.27;22.00;;;;;;;-3.16;100.00;101511.41;4998708;28;20021;-59
2021/12/23 02:20:11;;;;;;;26.17;20.80;;;;;;;-3.18;100.00;101503.66;5000646;28;20064;-59
2021/12/23 02:22:38;;;;;;;25.10;18.47;;;;;;;-3.19;100.00;101504.41;5004971;28;20112;-58
2021/12/23 02:25:06;;;;;;;26.50;20.87;;;;;;;-3.19;100.00;101501.88;4999862;28;20036;-57
2021/12/23 02:27:31;;;;;;;26.37;20.13;;;;;;;-3.19;100.00;101494.28;5001700;28;20108;-57
2021/12/23 02:29:56;;;;;;;25.73;19.90;;;;;;;-3.23;100.00;101489.63;5002842;28;20121;-59
2021/12/23 02:32:22;;;;;;;25.20;20.80;;;;;;;-3.21;100.00;101503.34;5005935;28;20462;-58
2021/12/23 02:34:47;;;;;;;25.20;20.03;;;;;;;-3.21;100.00;101508.44;4994762;28;20036;-56
2021/12/23 02:37:13;;;;;;;27.63;21.37;;;;;;;-3.20;100.00;101510.22;5003152;28;20038;-59
2021/12/23 02:39:40;;;;;;;23.43;19.37;;;;;;;-3.21;100.00;101498.28;4998279;28;20041;-58
2021/12/23 02:42:05;;;;;;;28.63;20.43;;;;;;;-3.22;100.00;101496.47;5000653;28;20235;-58
2021/12/23 02:44:30;;;;;;;22.77;18.83;;;;;;;-3.23;100.00;101503.94;5004051;28;20505;-57
2021/12/23 02:46:56;;;;;;;27.10;20.10;;;;;;;-3.25;100.00;101506.31;4998629;28;20126;-57
2021/12/23 02:49:21;;;;;;;26.03;19.50;;;;;;;-3.25;100.00;101511.41;4999103;28;20470;-57
2021/12/23 02:51:47;;;;;;;25.77;19.50;;;;;;;-3.26;100.00;101515.56;5001198;28;20065;-56
2021/12/23 02:54:12;;;;;;;23.37;19.30;;;;;;;-3.27;100.00;101502.75;5003445;28;20043;-58
2021/12/23 02:56:37;;;;;;;24.03;20.37;;;;;;;-3.27;100.00;101501.09;4996367;28;20041;-58
2021/12/23 02:59:03;;;;;;;25.27;19.50;;;;;;;-3.32;100.00;101487.09;5000191;28;20092;-58
2021/12/23 03:01:28;;;;;;;24.50;18.73;;;;;;;-3.36;100.00;101476.50;4995804;28;20034;-59
2021/12/23 03:03:54;;;;;;;27.40;19.97;;;;;;;-3.38;100.00;101469.63;5002529;28;20124;-58
2021/12/23 03:06:21;;;;;;;27.03;19.60;;;;;;;-3.39;100.00;101467.84;4998748;28;20025;-58
2021/12/23 03:08:52;;;;;;;31.80;19.53;;;;;;;-3.40;100.00;101470.25;5000940;28;20041;-58
2021/12/23 03:11:22;;;;;;;27.50;19.77;;;;;;;-3.42;100.00;101472.59;4997147;28;20068;-57
2021/12/23 03:13:48;;;;;;;26.70;20.57;;;;;;;-3.43;100.00;101463.22;4997959;28;20462;-62
2021/12/23 03:16:18;;;;;;;25.43;19.60;;;;;;;-3.45;100.00;101462.16;5003455;28;20188;-58
2021/12/23 03:18:43;;;;;;;28.83;20.40;;;;;;;-3.47;100.00;101465.31;5004672;28;20548;-58
2021/12/23 03:21:08;;;;;;;25.30;18.67;;;;;;;-3.47;100.00;101458.56;5006302;28;20033;-57
2021/12/23 03:23:34;;;;;;;26.20;18.60;;;;;;;-3.51;100.00;101449.78;4994117;28;20172;-57
2021/12/23 03:26:00;;;;;;;25.23;19.73;;;;;;;-3.53;100.00;101457.97;5002639;28;20022;-56
2021/12/23 03:28:25;;;;;;;25.20;19.37;;;;;;;-3.54;100.00;101452.00;4994305;28;20541;-57
2021/12/23 03:30:51;;;;;;;27.03;19.90;;;;;;;-3.55;100.00;101450.22;4990773;28;20262;-57
2021/12/23 03:33:17;;;;;;;26.53;19.87;;;;;;;-3.58;100.00;101439.78;4990633;28;20117;-57
2021/12/23 03:35:43;;;;;;;27.43;20.70;;;;;;;-3.60;100.00;101425.16;4991760;28;20034;-58
2021/12/23 03:38:09;;;;;;;27.23;20.20;;;;;;;-3.62;100.00;101409.81;5004521;28;20029;-58
2021/12/23 03:40:34;;;;;;;25.20;19.67;;;;;;;-3.62;100.00;101408.16;4992034;28;20061;-58
2021/12/23 03:43:00;;;;;;;28.03;19.83;;;;;;;-3.60;100.00;101425.16;5000764;28;20036;-58
2021/12/23 03:45:25;;;;;;;25.07;19.60;;;;;;;-3.58;100.00;101424.56;4996554;28;20084;-58
2021/12/23 03:47:51;;;;;;;26.73;20.00;;;;;;;-3.60;100.00;101409.97;4998431;28;20034;-57
2021/12/23 03:50:19;;;;;;;27.97;20.87;;;;;;;-3.58;100.00;101411.03;5001276;28;20040;-58
2021/12/23 03:52:45;;;;;;;28.17;20.50;;;;;;;-3.57;100.00;101401.03;5000560;28;20037;-58
2021/12/23 03:55:12;;;;;;;25.90;20.53;;;;;;;-3.57;100.00;101390.00;4998886;28;20074;-57
2021/12/23 03:57:37;;;;;;;29.07;20.77;;;;;;;-3.55;100.00;101383.44;4995079;28;20038;-58
2021/12/23 04:00:05;;;;;;;29.17;22.07;;;;;;;-3.54;100.00;101364.94;5002106;28;20120;-58
2021/12/23 04:02:31;;;;;;;28.23;22.50;;;;;;;-3.52;100.00;101358.38;4994438;28;20109;-57
2021/12/23 04:04:56;;;;;;;29.90;21.87;;;;;;;-3.48;100.00;101349.44;4999516;28;20534;-57
2021/12/23 04:07:21;;;;;;;26.83;21.83;;;;;;;-3.46;100.00;101359.00;4996249;28;20105;-57
2021/12/23 04:09:47;;;;;;;30.20;23.03;;;;;;;-3.43;100.00;101358.38;5000136;28;20073;-58
2021/12/23 04:12:13;;;;;;;31.87;24.17;;;;;;;-3.40;100.00;101371.38;4999982;28;20355;-59
2021/12/23 04:14:38;;;;;;;32.60;24.07;;;;;;;-3.36;100.00;101385.25;4999117;28;20351;-57
2021/12/23 04:17:04;;;;;;;29.57;22.33;;;;;;;-3.32;100.00;101367.03;5001189;28;20124;-58
2021/12/23 04:19:31;;;;;;;30.67;23.10;;;;;;;-3.30;100.00;101355.41;5001280;28;20072;-58
2021/12/23 04:21:57;;;;;;;33.27;25.00;;;;;;;-3.29;100.00;101349.59;5004585;28;20691;-57
2021/12/23 04:24:23;;;;;;;34.43;24.53;;;;;;;-3.26;100.00;101343.16;4999809;28;20037;-56
2021/12/23 04:26:48;;;;;;;32.20;23.67;;;;;;;-3.22;100.00;101351.94;5006851;28;20037;-58
2021/12/23 04:29:14;;;;;;;30.63;23.70;;;;;;;-3.17;100.00;101358.38;4996569;28;20495;-57
2021/12/23 04:31:39;;;;;;;31.23;23.93;;;;;;;-3.16;100.00;101344.03;5005954;28;20033;-58
2021/12/23 04:34:04;;;;;;;33.33;24.47;;;;;;;-3.11;100.00;101362.25;5001003;28;20034;-58
2021/12/23 04:36:30;;;;;;;32.77;24.73;;;;;;;-3.09;100.00;101361.63;5002402;28;20132;-57
2021/12/23 04:38:56;;;;;;;34.57;25.00;;;;;;;-3.05;100.00;101347.59;4999471;28;20072;-58
2021/12/23 04:41:22;;;;;;;32.73;25.53;;;;;;;-3.04;100.00;101334.19;5000338;28;20100;-58
2021/12/23 04:43:47;;;;;;;32.63;25.60;;;;;;;-3.04;100.00;101334.19;5004602;28;20034;-58
2021/12/23 04:46:13;;;;;;;34.43;27.00;;;;;;;-3.04;100.00;101330.00;4999656;28;20092;-57
2021/12/23 04:48:38;;;;;;;32.23;24.97;;;;;;;-3.04;100.00;101329.13;5006906;28;20022;-58
2021/12/23 04:51:04;;;;;;;32.87;26.93;;;;;;;-3.04;100.00;101303.75;5002335;28;20023;-58
2021/12/23 04:53:30;;;;;;;34.87;25.90;;;;;;;-3.03;100.00;101305.53;5007143;28;20041;-58
2021/12/23 04:55:56;;;;;;;31.53;24.57;;;;;;;-3.03;100.00;101324.19;4998990;28;20112;-58
2021/12/23 05:01:56;;;;;;;33.87;25.03;;;;;;;-2.97;100.00;101311.19;5008262;28;20093;-58
2021/12/23 05:04:21;;;;;;;31.73;25.23;;;;;;;-2.98;100.00;101291.63;4995879;28;20026;-57
2021/12/23 05:06:47;;;;;;;34.20;24.47;;;;;;;-2.98;100.00;101288.19;5005063;28;20038;-57
2021/12/23 05:09:12;;;;;;;33.40;24.57;;;;;;;-2.98;100.00;101284.03;5000018;28;20318;-57
2021/12/23 05:11:37;;;;;;;35.97;24.43;;;;;;;-2.97;100.00;101290.00;5002459;28;20120;-56
2021/12/23 05:14:03;;;;;;;32.70;23.93;;;;;;;-2.96;100.00;101280.00;4998412;28;20072;-57
2021/12/23 05:16:28;;;;;;;32.53;25.70;;;;;;;-2.95;100.00;101284.31;5000895;28;20455;-57
2021/12/23 05:18:54;;;;;;;33.93;24.73;;;;;;;-2.93;100.00;101282.81;5002574;28;20383;-58
2021/12/23 05:21:19;;;;;;;31.67;23.60;;;;;;;-2.91;100.00;101283.84;4999464;28;20029;-58
2021/12/23 05:23:44;;;;;;;32.80;24.77;;;;;;;-2.90;100.00;101285.63;5006279;28;20030;-58
2021/12/23 05:26:10;;;;;;;31.70;25.10;;;;;;;-2.88;100.00;101280.72;4998113;28;20032;-58
2021/12/23 05:28:36;;;;;;;35.30;24.70;;;;;;;-2.87;100.00;101281.59;5005223;28;20028;-57
2021/12/23 05:31:02;;;;;;;35.60;23.77;;;;;;;-2.84;100.00;101286.97;5000958;28;20033;-56
2021/12/23 05:33:27;;;;;;;36.10;25.30;;;;;;;-2.84;100.00;101275.16;5000807;28;20046;-58
2021/12/23 05:35:55;;;;;;;38.30;25.70;;;;;;;-2.81;100.00;101272.03;5003341;28;20032;-57
2021/12/23 05:38:21;;;;;;;35.40;26.03;;;;;;;-2.81;100.00;101277.09;5003158;28;20029;-58
2021/12/23 05:40:46;;;;;;;34.23;25.67;;;;;;;-2.79;100.00;101279.03;5000018;28;20213;-58
2021/12/23 05:43:11;;;;;;;31.57;23.93;;;;;;;-2.79;100.00;101281.56;5002144;28;20030;-58
2021/12/23 05:45:37;;;;;;;34.30;24.60;;;;;;;-2.77;100.00;101266.50;5006391;28;20041;-56
2021/12/23 05:48:02;;;;;;;34.47;24.70;;;;;;;-2.77;100.00;101263.97;5001374;28;20378;-57
2021/12/23 05:50:28;;;;;;;35.60;25.23;;;;;;;-2.75;100.00;101259.03;5003591;28;20499;-59
2021/12/23 05:52:53;;;;;;;34.17;25.13;;;;;;;-2.76;100.00;101242.91;4998516;28;20034;-59
2021/12/23 05:55:19;;;;;;;38.57;26.47;;;;;;;-2.74;100.00;101256.63;5001372;28;20137;-58
2021/12/23 05:57:45;;;;;;;33.73;25.17;;;;;;;-2.73;100.00;101260.94;4995323;28;20113;-58
2021/12/23 06:00:21;;;;;;;39.83;27.17;;;;;;;-2.73;100.00;101254.97;5005711;28;20048;-57
2021/12/23 06:02:47;;;;;;;34.77;26.37;;;;;;;-2.72;100.00;101262.75;5000840;28;20044;-57
2021/12/23 06:05:13;;;;;;;33.90;25.23;;;;;;;-2.71;100.00;101251.81;5003699;28;20033;-58
2021/12/23 06:07:39;;;;;;;34.67;25.50;;;;;;;-2.70;100.00;101248.53;5002720;28;20116;-59
2021/12/23 06:10:05;;;;;;;36.10;25.63;;;;;;;-2.69;100.00;101265.56;5004282;28;20105;-57
2021/12/23 06:12:31;;;;;;;33.80;25.27;;;;;;;-2.69;100.00;101265.56;5001097;28;20114;-56
2021/12/23 06:14:56;;;;;;;40.07;27.53;;;;;;;-2.68;100.00;101263.91;5002487;28;20040;-58
2021/12/23 06:17:22;;;;;;;36.87;25.97;;;;;;;-2.67;100.00;101261.53;4999672;28;20030;-58
2021/12/23 06:19:47;;;;;;;35.63;25.60;;;;;;;-2.68;100.00;101262.25;5006991;28;20036;-58
2021/12/23 06:22:13;;;;;;;37.30;26.40;;;;;;;-2.67;100.00;101266.59;5006657;28;20490;-59
2021/12/23 06:24:43;;;;;;;35.40;25.30;;;;;;;-2.67;100.00;101256.44;5007253;28;20387;-57
2021/12/23 06:27:08;;;;;;;33.50;24.53;;;;;;;-2.67;100.00;101241.22;5008224;28;20128;-59
2021/12/23 06:29:33;;;;;;;36.70;26.03;;;;;;;-2.68;100.00;101249.56;5007462;28;20654;-59
2021/12/23 06:31:59;;;;;;;34.90;25.07;;;;;;;-2.67;100.00;101230.16;5005639;28;20061;-58
2021/12/23 06:34:24;;;;;;;37.47;26.50;;;;;;;-2.67;100.00;101235.25;5006233;28;20040;-58
2021/12/23 06:36:49;;;;;;;37.57;25.97;;;;;;;-2.67;100.00;101228.53;5006427;28;20044;-59
2021/12/23 06:39:15;;;;;;;40.03;26.47;;;;;;;-2.68;100.00;101224.19;5007611;28;20046;-57
2021/12/23 06:41:40;;;;;;;37.63;24.80;;;;;;;-2.68;100.00;101216.56;5004457;28;20258;-57
2021/12/23 06:44:05;;;;;;;33.83;24.80;;;;;;;-2.68;100.00;101218.25;5005936;28;20034;-58
2021/12/23 06:46:31;;;;;;;37.03;27.30;;;;;;;-2.69;100.00;101224.94;4998672;28;20032;-58
2021/12/23 06:48:56;;;;;;;36.07;26.70;;;;;;;-2.69;100.00;101211.38;5002227;28;20053;-56
2021/12/23 06:51:21;;;;;;;37.57;26.80;;;;;;;-2.69;100.00;101212.25;5002679;28;20205;-57
2021/12/23 06:53:47;;;;;;;35.73;25.47;;;;;;;-2.71;100.00;101201.06;5000395;28;20033;-58
2021/12/23 06:56:16;;;;;;;38.63;26.00;;;;;;;-2.70;100.00;101202.84;4998429;28;20037;-58
2021/12/23 06:58:47;;;;;;;36.50;25.63;;;;;;;-2.69;100.00;101199.56;5005966;28;20494;-57
2021/12/23 07:01:15;;;;;;;38.75;27.92;;;;;;;-2.68;100.00;101206.41;5006799;28;20356;-59
2021/12/23 07:06:24;;;;;;;36.93;25.70;;;;;;;-2.64;100.00;101217.75;5005412;28;20440;-58
2021/12/23 07:08:50;;;;;;;36.10;25.57;;;;;;;-2.62;100.00;101208.63;5002961;28;20116;-59
2021/12/23 07:11:15;;;;;;;37.13;25.97;;;;;;;-2.61;100.00;101209.53;5002211;28;20033;-58
2021/12/23 07:13:41;;;;;;;35.60;24.80;;;;;;;-2.58;100.00;101217.41;4998421;28;20565;-58
2021/12/23 07:16:06;;;;;;;35.23;26.67;;;;;;;-2.57;100.00;101207.41;5003275;28;20025;-57
2021/12/23 07:18:32;;;;;;;35.93;24.67;;;;;;;-2.56;100.00;101210.84;5001123;28;20073;-57
2021/12/23 07:20:57;;;;;;;41.63;26.30;;;;;;;-2.55;100.00;101208.44;4996799;28;20036;-59
2021/12/23 07:23:23;;;;;;;36.70;26.23;;;;;;;-2.53;100.00;101203.50;4999087;28;20022;-59
2021/12/23 07:25:48;;;;;;;37.90;26.37;;;;;;;-2.50;100.00;101206.31;5001924;28;20033;-59
2021/12/23 07:28:13;;;;;;;37.33;26.13;;;;;;;-2.49;100.00;101205.56;5001022;28;20037;-57
2021/12/23 07:30:39;;;;;;;37.40;27.37;;;;;;;-2.48;100.00;101204.81;4999781;28;20022;-59
2021/12/23 07:33:04;;;;;;;36.90;25.37;;;;;;;-2.44;100.00;101199.25;5004096;28;20029;-58
2021/12/23 07:35:29;;;;;;;37.63;27.13;;;;;;;-2.43;100.00;101208.66;5004453;28;20038;-59
2021/12/23 07:37:57;;;;;;;39.43;26.63;;;;;;;-2.41;100.00;101207.16;5002773;28;20076;-58
2021/12/23 07:40:22;;;;;;;36.30;26.07;;;;;;;-2.40;100.00;101218.22;5005728;28;20030;-58
2021/12/23 07:42:56;;;;;;;44.80;28.43;;;;;;;-2.38;100.00;101218.34;5004679;28;20060;-58
2021/12/23 07:45:24;;;;;;;38.20;26.10;;;;;;;-2.37;100.00;101225.19;5003016;28;20026;-57
2021/12/23 07:47:50;;;;;;;36.10;25.63;;;;;;;-2.35;100.00;101216.06;5007876;28;20021;-59
2021/12/23 07:50:15;;;;;;;38.47;25.83;;;;;;;-2.34;100.00;101215.34;5006054;28;20044;-59
2021/12/23 07:52:41;;;;;;;41.53;27.93;;;;;;;-2.34;100.00;101216.22;5005289;28;20482;-58
2021/12/23 07:55:06;;;;;;;40.27;28.03;;;;;;;-2.31;100.00;101215.59;5003333;28;20089;-57
2021/12/23 07:57:32;;;;;;;36.57;24.60;;;;;;;-2.30;100.00;101212.28;5001119;28;20061;-58
2021/12/23 07:59:58;;;;;;;34.00;24.20;;;;;;;-2.29;100.00;101203.94;5003401;28;20037;-58
2021/12/23 08:02:24;;;;;;;36.77;25.50;;;;;;;-2.28;100.00;101203.19;5004583;28;20026;-57
2021/12/23 08:04:49;;;;;;;35.97;26.33;;;;;;;-2.26;100.00;101198.22;5001684;28;20026;-58
2021/12/23 08:07:15;;;;;;;37.73;27.00;;;;;;;-2.24;100.00;101207.78;5003120;28;20033;-58
2021/12/23 08:09:40;;;;;;;37.80;26.57;;;;;;;-2.22;100.00;101200.31;5007228;28;20025;-58
2021/12/23 08:12:07;;;;;;;35.07;24.93;;;;;;;-2.21;100.00;101197.91;5002136;28;20057;-57
2021/12/23 08:14:33;;;;;;;37.50;26.27;;;;;;;-2.20;100.00;101194.63;4990896;28;20039;-57
2021/12/23 08:16:58;;;;;;;38.10;26.23;;;;;;;-2.20;100.00;101189.53;5000569;28;20398;-59
2021/12/23 08:19:24;;;;;;;35.40;25.30;;;;;;;-2.18;100.00;101195.63;5027541;28;20018;-58
2021/12/23 08:21:49;;;;;;;37.10;26.47;;;;;;;-2.16;100.00;101200.88;4998368;28;20482;-58
2021/12/23 08:24:14;;;;;;;41.40;26.47;;;;;;;-2.15;100.00;101196.66;5002526;28;20038;-58
2021/12/23 08:26:42;;;;;;;35.77;25.07;;;;;;;-2.13;100.00;101192.59;5001139;28;20033;-58
2021/12/23 08:29:08;;;;;;;39.30;25.93;;;;;;;-2.12;100.00;101186.78;5004871;28;20112;-58
2021/12/23 08:31:34;;;;;;;37.37;25.33;;;;;;;-2.11;100.00;101183.47;4995756;28;20148;-58
2021/12/23 08:34:00;;;;;;;37.07;25.10;;;;;;;-2.07;100.00;101177.94;4997368;28;20021;-58
2021/12/23 08:36:25;;;;;;;38.90;25.17;;;;;;;-2.07;100.00;101175.38;5002016;28;20581;-58
2021/12/23 08:38:51;;;;;;;41.27;26.87;;;;;;;-2.06;100.00;101169.53;5003998;28;20527;-57
2021/12/23 08:41:17;;;;;;;37.83;25.53;;;;;;;-2.03;100.00;101167.25;4999576;28;20486;-57
2021/12/23 08:43:44;;;;;;;37.80;26.47;;;;;;;-2.01;100.00;101170.84;5003000;28;20030;-58
2021/12/23 08:46:10;;;;;;;37.40;25.07;;;;;;;-1.99;100.00;101164.25;5002576;28;20101;-58
2021/12/23 08:48:35;;;;;;;38.13;26.60;;;;;;;-1.96;100.00;101156.88;5004645;28;20028;-59
2021/12/23 08:51:01;;;;;;;37.20;26.17;;;;;;;-1.94;100.00;101146.84;5003638;28;20038;-58
2021/12/23 08:53:26;;;;;;;36.40;26.40;;;;;;;-1.96;100.00;101154.34;5004020;28;20037;-58
2021/12/23 08:55:51;;;;;;;39.37;26.57;;;;;;;-1.95;100.00;101148.53;4997359;28;20058;-58
2021/12/23 08:58:17;;;;;;;38.20;27.00;;;;;;;-1.96;100.00;101149.25;4994245;28;20525;-59
2021/12/23 09:00:42;;;;;;;35.13;25.33;;;;;;;-1.92;100.00;101144.47;4998729;28;20023;-57
2021/12/23 09:03:09;;;;;;;37.17;25.63;;;;;;;-1.91;100.00;101142.06;5004908;28;20100;-58
2021/12/23 09:05:37;;;;;;;38.20;26.73;;;;;;;-1.89;100.00;101140.53;5007093;28;20034;-58
2021/12/23 09:08:05;;;;;;;37.20;26.90;;;;;;;-1.86;100.00;101150.06;5007784;28;20030;-57
2021/12/23 09:10:30;;;;;;;38.47;25.80;;;;;;;-1.85;100.00;101142.59;5002425;28;20485;-59
2021/12/23 09:12:56;;;;;;;34.20;24.60;;;;;;;-1.80;100.00;101140.47;5004414;28;20034;-57
2021/12/23 09:15:22;;;;;;;34.13;26.00;;;;;;;-1.76;100.00;101126.38;5000170;28;20025;-58
2021/12/23 09:17:48;;;;;;;37.60;25.63;;;;;;;-1.72;100.00;101134.38;5004904;28;20026;-57
2021/12/23 09:20:16;;;;;;;36.60;25.97;;;;;;;-1.64;100.00;101136.69;5004683;28;20034;-58
2021/12/23 09:22:42;;;;;;;33.47;24.37;;;;;;;-1.60;100.00;101139.63;5002180;28;20145;-57
2021/12/23 09:25:12;;;;;;;35.37;25.07;;;;;;;-1.54;100.00;101139.25;5002521;28;20026;-59
2021/12/23 09:27:59;;;;;;;38.20;26.13;;;;;;;-1.51;100.00;101143.75;5000369;28;20037;-58
2021/12/23 09:33:10;;;;;;;36.20;25.43;;;;;;;-1.47;100.00;101133.94;5010593;28;20044;-59
2021/12/23 09:35:37;;;;;;;36.57;25.60;;;;;;;-1.43;100.00;101135.09;5006341;28;20038;-57
2021/12/23 09:38:02;;;;;;;34.37;24.43;;;;;;;-1.45;100.00;101132.44;5007389;28;20022;-58
2021/12/23 09:40:29;;;;;;;38.87;26.87;;;;;;;-1.40;100.00;101131.94;5004105;28;20091;-58
2021/12/23 09:42:59;;;;;;;36.53;25.53;;;;;;;-1.41;100.00;101125.97;5003615;28;20037;-58
2021/12/23 09:45:25;;;;;;;36.23;26.30;;;;;;;-1.37;100.00;101133.06;4997197;28;20468;-59
2021/12/23 09:47:50;;;;;;;36.37;26.00;;;;;;;-1.35;100.00;101115.41;5003721;28;20037;-58
2021/12/23 09:50:24;;;;;;;37.97;26.63;;;;;;;-1.31;100.00;101112.34;5000371;28;20029;-56
2021/12/23 09:52:53;;;;;;;36.67;24.90;;;;;;;-1.28;100.00;101114.28;5004807;28;20040;-57
2021/12/23 09:55:21;;;;;;;37.40;24.83;;;;;;;-1.26;100.00;101100.91;4997361;28;21584;-57
2021/12/23 09:57:49;;;;;;;35.20;25.33;;;;;;;-1.24;100.00;101099.41;5001492;28;20045;-58
2021/12/23 10:00:18;;;;;;;35.93;26.13;;;;;;;-1.22;100.00;101102.97;4997351;28;20368;-58
2021/12/23 10:02:44;;;;;;;38.33;26.10;;;;;;;-1.19;100.00;101101.44;5005845;28;20475;-57
2021/12/23 10:05:13;;;;;;;38.87;27.30;;;;;;;-1.17;100.00;101089.75;4997256;28;20030;-57
2021/12/23 10:07:41;;;;;;;37.87;26.93;;;;;;;-1.18;100.00;101093.94;5002373;28;20109;-58
2021/12/23 10:33:08;;;;;;;41.60;26.63;;;;;;;-0.94;100.00;101060.22;4964401;28;20422;-57
2021/12/23 10:38:44;;;;;;;36.70;24.73;;;;;;;-0.80;100.00;101031.72;4963195;28;20581;-57
2021/12/23 10:41:22;;;;;;;37.70;26.23;;;;;;;-0.75;100.00;101025.34;4963631;28;20034;-55
2021/12/23 10:44:00;;;;;;;35.90;24.17;;;;;;;-0.69;100.00;101012.22;4960153;28;20066;-56
2021/12/23 10:46:38;;;;;;;34.13;24.87;;;;;;;-0.63;100.00;100999.09;4956629;28;20041;-57
2021/12/23 10:52:16;;;;;;;39.03;24.17;;;;;;;-0.49;100.00;101006.16;5000174;28;20033;-56
2021/12/23 11:00:20;;;;;;;39.77;25.60;;;;;;;-0.27;100.00;100991.72;5006358;28;20068;-58
2021/12/23 11:05:56;;;;;;;37.57;24.53;;;;;;;-0.08;100.00;100991.47;5002468;28;20034;-55
2021/12/23 11:27:22;;;;;;;34.63;23.43;;;;;;;0.12;100.00;100969.19;5005981;28;20042;-57
2021/12/23 11:46:14;;;;;;;32.83;22.43;;;;;;;1.25;100.00;100913.53;5006588;28;20037;-57
2021/12/23 11:48:43;;;;;;;30.50;22.80;;;;;;;1.29;100.00;100907.88;5006894;28;20041;-58
2021/12/23 11:51:15;;;;;;;30.80;21.10;;;;;;;1.33;100.00;100899.69;5000809;28;20026;-57
2021/12/23 11:53:40;;;;;;;28.67;21.33;;;;;;;1.39;100.00;100900.09;5000043;28;20113;-58
2021/12/23 11:56:09;;;;;;;30.07;21.90;;;;;;;1.43;100.00;100896.97;5006313;28;20129;-58
2021/12/23 11:58:41;;;;;;;32.10;22.37;;;;;;;1.49;100.00;100896.53;5005568;28;20033;-58
2021/12/23 12:01:13;;;;;;;30.00;22.47;;;;;;;1.54;100.00;100881.50;5008212;28;20116;-58
2021/12/23 12:04:02;;;;;;;31.50;21.77;;;;;;;1.61;100.00;100885.38;5004998;28;20069;-57
2021/12/23 12:06:42;;;;;;;28.97;21.00;;;;;;;1.67;100.00;100881.56;5006729;28;20485;-58
2021/12/23 12:09:28;;;;;;;28.70;20.77;;;;;;;1.77;99.92;100866.88;5003822;28;20033;-58
2021/12/23 12:11:59;;;;;;;32.50;21.20;;;;;;;1.82;99.63;100873.19;5000768;28;20041;-57
2021/12/23 12:14:40;;;;;;;32.88;22.90;;;;;;;1.85;99.50;100869.97;4999375;28;20034;-57
2021/12/23 12:17:23;;;;;;;30.37;22.23;;;;;;;1.87;99.99;100879.50;5005603;28;20036;-58
2021/12/23 12:19:59;;;;;;;31.20;21.90;;;;;;;1.87;100.00;100864.16;5003717;28;20080;-59
2021/12/23 12:22:52;;;;;;;29.83;22.13;;;;;;;1.92;99.82;100855.13;5004319;28;20026;-58
2021/12/23 12:25:23;;;;;;;28.57;20.87;;;;;;;1.94;100.00;100834.81;5001006;28;20029;-57
2021/12/23 12:27:54;;;;;;;;;;;;;;;2.01;100.00;100830.97;5005069;28;20025;-58